Prattville, Alabama
Current Conditions -  °F | °C
As of 10:55 AM on Friday 26 Dec 2014 (Local Time) from K1A9 Reporting Station
Clear Clear  
Wind Chill: 52°   Ceiling: Unl
Heat Index: 52°   Visibility: 10mi
Dew Point: 39°   Wind: 3mph
Humidity: 60%   Direction: 110°ESE
Pressure: 30.34"   Gusts: NA
Location:  32.46°N, 86.45°W
Report Text: K1A9 261655Z AUTO 11003KT 10SM CLR 11/04 A3034 RMK AO2 T01120038
Loading
Personal Weather Stations






























Interactive Weather Map New forecast layout! Learn more

10-Day Weather Forecast

Advertisements
Track Severe Weather on mobile